sensor_id;sensor_type;location;lat;lon;timestamp;P1;durP1;ratioP1;P2;durP2;ratioP2
76995;SDS011;65929;49.062;10.338;2023-12-20T00:00:49;4.05;;;2.00;;
76995;SDS011;65929;49.062;10.338;2023-12-20T00:01:49;3.88;;;2.20;;
76995;SDS011;65929;49.062;10.338;2023-12-20T00:02:50;3.13;;;1.90;;
76995;SDS011;65929;49.062;10.338;2023-12-20T00:03:51;4.25;;;2.30;;
76995;SDS011;65929;49.062;10.338;2023-12-20T00:04:52;3.67;;;2.17;;
76995;SDS011;65929;49.062;10.338;2023-12-20T00:05:53;3.55;;;2.15;;
76995;SDS011;65929;49.062;10.338;2023-12-20T00:06:54;3.65;;;2.20;;
76995;SDS011;65929;49.062;10.338;2023-12-20T00:07:55;3.17;;;2.13;;
76995;SDS011;65929;49.062;10.338;2023-12-20T00:08:56;3.92;;;2.10;;
76995;SDS011;65929;49.062;10.338;2023-12-20T00:09:58;3.53;;;1.98;;
76995;SDS011;65929;49.062;10.338;2023-12-20T00:10:58;4.28;;;2.10;;
76995;SDS011;65929;49.062;10.338;2023-12-20T00:12:01;2.90;;;1.45;;
76995;SDS011;65929;49.062;10.338;2023-12-20T00:13:02;2.67;;;2.20;;
76995;SDS011;65929;49.062;10.338;2023-12-20T00:14:07;2.55;;;2.00;;
76995;SDS011;65929;49.062;10.338;2023-12-20T00:15:08;5.20;;;2.25;;
76995;SDS011;65929;49.062;10.338;2023-12-20T00:16:09;3.78;;;2.05;;
76995;SDS011;65929;49.062;10.338;2023-12-20T00:17:10;3.63;;;2.17;;
76995;SDS011;65929;49.062;10.338;2023-12-20T00:18:11;4.10;;;2.20;;
76995;SDS011;65929;49.062;10.338;2023-12-20T00:19:11;5.00;;;2.45;;
76995;SDS011;65929;49.062;10.338;2023-12-20T00:20:12;5.13;;;2.70;;
76995;SDS011;65929;49.062;10.338;2023-12-20T00:21:13;3.88;;;2.17;;
76995;SDS011;65929;49.062;10.338;2023-12-20T00:22:14;3.75;;;2.33;;
76995;SDS011;65929;49.062;10.338;2023-12-20T00:23:15;4.10;;;2.30;;
76995;SDS011;65929;49.062;10.338;2023-12-20T00:24:16;3.58;;;2.33;;
76995;SDS011;65929;49.062;10.338;2023-12-20T00:25:17;3.35;;;1.95;;
76995;SDS011;65929;49.062;10.338;2023-12-20T00:26:18;2.60;;;1.98;;
76995;SDS011;65929;49.062;10.338;2023-12-20T00:27:21;3.60;;;1.70;;
76995;SDS011;65929;49.062;10.338;2023-12-20T00:28:21;4.75;;;1.95;;
76995;SDS011;65929;49.062;10.338;2023-12-20T00:29:23;3.78;;;2.20;;
76995;SDS011;65929;49.062;10.338;2023-12-20T00:30:23;3.50;;;2.25;;
76995;SDS011;65929;49.062;10.338;2023-12-20T00:31:24;4.07;;;2.67;;
76995;SDS011;65929;49.062;10.338;2023-12-20T00:32:25;2.92;;;1.80;;
76995;SDS011;65929;49.062;10.338;2023-12-20T00:33:26;2.67;;;2.08;;
76995;SDS011;65929;49.062;10.338;2023-12-20T00:34:27;4.40;;;2.45;;
76995;SDS011;65929;49.062;10.338;2023-12-20T00:35:28;3.60;;;2.05;;
76995;SDS011;65929;49.062;10.338;2023-12-20T00:36:29;3.17;;;1.95;;
76995;SDS011;65929;49.062;10.338;2023-12-20T00:37:30;2.72;;;2.10;;
76995;SDS011;65929;49.062;10.338;2023-12-20T00:38:30;2.13;;;1.80;;
76995;SDS011;65929;49.062;10.338;2023-12-20T00:39:32;3.72;;;2.38;;
76995;SDS011;65929;49.062;10.338;2023-12-20T00:40:33;4.45;;;2.00;;
76995;SDS011;65929;49.062;10.338;2023-12-20T00:41:34;3.40;;;2.10;;
76995;SDS011;65929;49.062;10.338;2023-12-20T00:42:36;3.05;;;1.77;;
76995;SDS011;65929;49.062;10.338;2023-12-20T00:43:37;3.38;;;2.17;;
76995;SDS011;65929;49.062;10.338;2023-12-20T00:44:38;3.67;;;2.00;;
76995;SDS011;65929;49.062;10.338;2023-12-20T00:45:39;4.10;;;1.90;;
76995;SDS011;65929;49.062;10.338;2023-12-20T00:46:39;4.10;;;2.10;;
76995;SDS011;65929;49.062;10.338;2023-12-20T00:47:40;3.92;;;1.75;;
76995;SDS011;65929;49.062;10.338;2023-12-20T00:48:41;3.03;;;1.90;;
76995;SDS011;65929;49.062;10.338;2023-12-20T00:49:42;4.03;;;2.22;;
76995;SDS011;65929;49.062;10.338;2023-12-20T00:50:43;4.45;;;2.10;;
76995;SDS011;65929;49.062;10.338;2023-12-20T00:51:44;3.90;;;1.90;;
76995;SDS011;65929;49.062;10.338;2023-12-20T00:52:45;3.55;;;2.15;;
76995;SDS011;65929;49.062;10.338;2023-12-20T00:53:46;3.60;;;2.00;;
76995;SDS011;65929;49.062;10.338;2023-12-20T00:54:49;2.10;;;1.80;;
76995;SDS011;65929;49.062;10.338;2023-12-20T00:55:50;4.25;;;1.88;;
76995;SDS011;65929;49.062;10.338;2023-12-20T00:56:51;4.05;;;2.47;;
76995;SDS011;65929;49.062;10.338;2023-12-20T00:57:53;2.85;;;1.70;;
76995;SDS011;65929;49.062;10.338;2023-12-20T00:58:54;3.38;;;2.25;;
76995;SDS011;65929;49.062;10.338;2023-12-20T00:59:55;2.80;;;2.03;;
76995;SDS011;65929;49.062;10.338;2023-12-20T01:00:56;3.72;;;2.30;;
76995;SDS011;65929;49.062;10.338;2023-12-20T01:01:58;4.45;;;2.30;;
76995;SDS011;65929;49.062;10.338;2023-12-20T01:02:59;5.55;;;2.65;;
76995;SDS011;65929;49.062;10.338;2023-12-20T01:03:59;6.07;;;2.85;;
76995;SDS011;65929;49.062;10.338;2023-12-20T01:05:00;2.60;;;1.95;;
76995;SDS011;65929;49.062;10.338;2023-12-20T01:06:01;4.45;;;2.20;;
76995;SDS011;65929;49.062;10.338;2023-12-20T01:07:02;3.42;;;2.05;;
76995;SDS011;65929;49.062;10.338;2023-12-20T01:08:04;4.43;;;2.55;;
76995;SDS011;65929;49.062;10.338;2023-12-20T01:09:05;3.95;;;2.10;;
76995;SDS011;65929;49.062;10.338;2023-12-20T01:10:06;2.42;;;2.20;;
76995;SDS011;65929;49.062;10.338;2023-12-20T01:11:08;3.83;;;2.13;;
76995;SDS011;65929;49.062;10.338;2023-12-20T01:12:08;4.00;;;2.10;;
76995;SDS011;65929;49.062;10.338;2023-12-20T01:13:11;5.18;;;2.33;;
76995;SDS011;65929;49.062;10.338;2023-12-20T01:14:12;4.00;;;2.35;;
76995;SDS011;65929;49.062;10.338;2023-12-20T01:15:13;4.13;;;2.63;;
76995;SDS011;65929;49.062;10.338;2023-12-20T01:16:14;3.95;;;2.47;;
76995;SDS011;65929;49.062;10.338;2023-12-20T01:17:15;3.10;;;2.00;;
76995;SDS011;65929;49.062;10.338;2023-12-20T01:18:16;3.22;;;2.28;;
76995;SDS011;65929;49.062;10.338;2023-12-20T01:19:17;5.38;;;2.15;;
76995;SDS011;65929;49.062;10.338;2023-12-20T01:20:18;3.67;;;2.13;;
76995;SDS011;65929;49.062;10.338;2023-12-20T01:21:20;3.40;;;2.25;;
76995;SDS011;65929;49.062;10.338;2023-12-20T01:22:21;4.13;;;2.20;;
76995;SDS011;65929;49.062;10.338;2023-12-20T01:23:22;5.60;;;2.50;;
76995;SDS011;65929;49.062;10.338;2023-12-20T01:24:22;4.30;;;2.17;;
76995;SDS011;65929;49.062;10.338;2023-12-20T01:25:23;3.75;;;1.85;;
76995;SDS011;65929;49.062;10.338;2023-12-20T01:26:24;3.42;;;1.77;;
76995;SDS011;65929;49.062;10.338;2023-12-20T01:27:25;6.03;;;2.13;;
76995;SDS011;65929;49.062;10.338;2023-12-20T01:28:27;4.80;;;2.50;;
76995;SDS011;65929;49.062;10.338;2023-12-20T01:29:28;3.25;;;2.13;;
76995;SDS011;65929;49.062;10.338;2023-12-20T01:30:29;3.72;;;2.15;;
76995;SDS011;65929;49.062;10.338;2023-12-20T01:31:30;4.72;;;2.15;;
76995;SDS011;65929;49.062;10.338;2023-12-20T01:32:31;2.45;;;1.98;;
76995;SDS011;65929;49.062;10.338;2023-12-20T01:33:32;3.85;;;2.30;;
76995;SDS011;65929;49.062;10.338;2023-12-20T01:34:33;3.20;;;2.10;;
76995;SDS011;65929;49.062;10.338;2023-12-20T01:35:34;3.28;;;2.05;;
76995;SDS011;65929;49.062;10.338;2023-12-20T01:36:34;4.03;;;1.90;;
76995;SDS011;65929;49.062;10.338;2023-12-20T01:37:35;4.40;;;1.80;;
76995;SDS011;65929;49.062;10.338;2023-12-20T01:38:36;4.38;;;1.88;;
76995;SDS011;65929;49.062;10.338;2023-12-20T01:39:37;3.60;;;1.60;;
76995;SDS011;65929;49.062;10.338;2023-12-20T01:40:38;3.03;;;1.90;;
76995;SDS011;65929;49.062;10.338;2023-12-20T01:41:39;2.90;;;1.70;;
76995;SDS011;65929;49.062;10.338;2023-12-20T01:42:40;3.25;;;1.60;;
76995;SDS011;65929;49.062;10.338;2023-12-20T01:43:42;3.08;;;1.67;;
76995;SDS011;65929;49.062;10.338;2023-12-20T01:44:43;3.15;;;1.45;;
76995;SDS011;65929;49.062;10.338;2023-12-20T01:45:44;2.75;;;1.90;;
76995;SDS011;65929;49.062;10.338;2023-12-20T01:46:46;4.78;;;1.90;;
76995;SDS011;65929;49.062;10.338;2023-12-20T01:47:48;3.20;;;1.90;;
76995;SDS011;65929;49.062;10.338;2023-12-20T01:48:49;4.20;;;1.80;;
76995;SDS011;65929;49.062;10.338;2023-12-20T01:49:50;3.60;;;1.63;;
76995;SDS011;65929;49.062;10.338;2023-12-20T01:50:51;2.42;;;1.58;;
76995;SDS011;65929;49.062;10.338;2023-12-20T01:51:52;3.85;;;1.70;;
76995;SDS011;65929;49.062;10.338;2023-12-20T01:52:53;2.28;;;1.60;;
76995;SDS011;65929;49.062;10.338;2023-12-20T01:53:57;3.35;;;1.77;;
76995;SDS011;65929;49.062;10.338;2023-12-20T01:54:59;3.92;;;2.58;;
76995;SDS011;65929;49.062;10.338;2023-12-20T01:56:03;2.33;;;1.67;;
76995;SDS011;65929;49.062;10.338;2023-12-20T01:57:05;4.03;;;1.90;;
76995;SDS011;65929;49.062;10.338;2023-12-20T01:58:08;4.15;;;1.80;;
76995;SDS011;65929;49.062;10.338;2023-12-20T01:59:12;3.08;;;1.70;;
76995;SDS011;65929;49.062;10.338;2023-12-20T02:00:13;2.63;;;1.50;;
76995;SDS011;65929;49.062;10.338;2023-12-20T02:01:15;2.72;;;1.70;;
76995;SDS011;65929;49.062;10.338;2023-12-20T02:02:16;3.80;;;1.90;;
76995;SDS011;65929;49.062;10.338;2023-12-20T02:03:17;2.63;;;1.50;;
76995;SDS011;65929;49.062;10.338;2023-12-20T02:04:19;3.67;;;2.00;;
76995;SDS011;65929;49.062;10.338;2023-12-20T02:05:20;2.88;;;1.48;;
76995;SDS011;65929;49.062;10.338;2023-12-20T02:06:21;2.45;;;1.75;;
76995;SDS011;65929;49.062;10.338;2023-12-20T02:07:25;2.35;;;1.38;;
76995;SDS011;65929;49.062;10.338;2023-12-20T02:08:30;2.30;;;1.35;;
76995;SDS011;65929;49.062;10.338;2023-12-20T02:09:34;2.97;;;1.58;;
76995;SDS011;65929;49.062;10.338;2023-12-20T02:10:35;4.28;;;1.60;;
76995;SDS011;65929;49.062;10.338;2023-12-20T02:11:36;2.90;;;1.73;;
76995;SDS011;65929;49.062;10.338;2023-12-20T02:12:38;3.40;;;1.77;;
76995;SDS011;65929;49.062;10.338;2023-12-20T02:13:39;2.33;;;1.42;;
76995;SDS011;65929;49.062;10.338;2023-12-20T02:14:41;2.70;;;1.65;;
76995;SDS011;65929;49.062;10.338;2023-12-20T02:15:42;2.67;;;1.08;;
76995;SDS011;65929;49.062;10.338;2023-12-20T02:16:43;2.17;;;1.35;;
76995;SDS011;65929;49.062;10.338;2023-12-20T02:17:45;2.80;;;1.33;;
76995;SDS011;65929;49.062;10.338;2023-12-20T02:18:47;2.28;;;1.00;;
76995;SDS011;65929;49.062;10.338;2023-12-20T02:19:49;1.30;;;0.98;;
76995;SDS011;65929;49.062;10.338;2023-12-20T02:20:50;1.85;;;1.35;;
76995;SDS011;65929;49.062;10.338;2023-12-20T02:21:52;1.60;;;0.80;;
76995;SDS011;65929;49.062;10.338;2023-12-20T02:23:05;2.92;;;1.33;;
76995;SDS011;65929;49.062;10.338;2023-12-20T02:24:06;1.23;;;0.80;;
76995;SDS011;65929;49.062;10.338;2023-12-20T02:25:07;0.85;;;0.80;;
76995;SDS011;65929;49.062;10.338;2023-12-20T02:26:08;2.47;;;1.02;;
76995;SDS011;65929;49.062;10.338;2023-12-20T02:27:09;1.23;;;0.70;;
76995;SDS011;65929;49.062;10.338;2023-12-20T02:28:10;1.40;;;0.95;;
76995;SDS011;65929;49.062;10.338;2023-12-20T02:29:11;1.05;;;0.77;;
76995;SDS011;65929;49.062;10.338;2023-12-20T02:30:12;0.73;;;0.52;;
76995;SDS011;65929;49.062;10.338;2023-12-20T02:31:13;1.35;;;0.82;;
76995;SDS011;65929;49.062;10.338;2023-12-20T02:32:14;1.45;;;0.90;;
76995;SDS011;65929;49.062;10.338;2023-12-20T02:33:15;1.33;;;0.82;;
76995;SDS011;65929;49.062;10.338;2023-12-20T02:34:17;2.60;;;0.90;;
76995;SDS011;65929;49.062;10.338;2023-12-20T02:35:17;1.20;;;0.70;;
76995;SDS011;65929;49.062;10.338;2023-12-20T02:36:18;0.88;;;0.70;;
76995;SDS011;65929;49.062;10.338;2023-12-20T02:37:21;1.15;;;0.55;;
76995;SDS011;65929;49.062;10.338;2023-12-20T02:38:22;0.90;;;0.73;;
76995;SDS011;65929;49.062;10.338;2023-12-20T02:39:23;1.02;;;0.60;;
76995;SDS011;65929;49.062;10.338;2023-12-20T02:40:24;1.02;;;0.40;;
76995;SDS011;65929;49.062;10.338;2023-12-20T02:41:24;0.98;;;0.70;;
76995;SDS011;65929;49.062;10.338;2023-12-20T02:42:25;0.73;;;0.70;;
76995;SDS011;65929;49.062;10.338;2023-12-20T02:43:26;1.02;;;0.60;;
76995;SDS011;65929;49.062;10.338;2023-12-20T02:44:27;1.23;;;0.85;;
76995;SDS011;65929;49.062;10.338;2023-12-20T02:45:28;1.95;;;1.25;;
76995;SDS011;65929;49.062;10.338;2023-12-20T02:46:29;0.60;;;0.60;;
76995;SDS011;65929;49.062;10.338;2023-12-20T02:47:30;0.75;;;0.57;;
76995;SDS011;65929;49.062;10.338;2023-12-20T02:48:31;0.63;;;0.50;;
76995;SDS011;65929;49.062;10.338;2023-12-20T02:49:32;1.33;;;0.90;;
76995;SDS011;65929;49.062;10.338;2023-12-20T02:50:32;1.08;;;0.80;;
76995;SDS011;65929;49.062;10.338;2023-12-20T02:51:34;0.95;;;0.75;;
76995;SDS011;65929;49.062;10.338;2023-12-20T02:52:36;1.30;;;0.80;;
76995;SDS011;65929;49.062;10.338;2023-12-20T02:53:37;1.45;;;0.77;;
76995;SDS011;65929;49.062;10.338;2023-12-20T02:54:38;1.65;;;0.90;;
76995;SDS011;65929;49.062;10.338;2023-12-20T02:55:39;1.23;;;0.80;;
76995;SDS011;65929;49.062;10.338;2023-12-20T02:56:40;1.05;;;0.70;;
76995;SDS011;65929;49.062;10.338;2023-12-20T02:57:40;0.85;;;0.50;;
76995;SDS011;65929;49.062;10.338;2023-12-20T02:58:41;1.02;;;0.73;;
76995;SDS011;65929;49.062;10.338;2023-12-20T02:59:42;1.70;;;1.08;;
76995;SDS011;65929;49.062;10.338;2023-12-20T03:00:43;1.55;;;1.17;;
76995;SDS011;65929;49.062;10.338;2023-12-20T03:01:45;1.80;;;1.20;;
76995;SDS011;65929;49.062;10.338;2023-12-20T03:02:46;1.15;;;0.75;;
76995;SDS011;65929;49.062;10.338;2023-12-20T03:03:47;1.48;;;0.98;;
76995;SDS011;65929;49.062;10.338;2023-12-20T03:04:48;0.95;;;0.88;;
76995;SDS011;65929;49.062;10.338;2023-12-20T03:05:49;1.55;;;1.13;;
76995;SDS011;65929;49.062;10.338;2023-12-20T03:06:50;1.58;;;0.73;;
76995;SDS011;65929;49.062;10.338;2023-12-20T03:07:52;2.60;;;1.10;;
76995;SDS011;65929;49.062;10.338;2023-12-20T03:08:53;1.40;;;1.20;;
76995;SDS011;65929;49.062;10.338;2023-12-20T03:09:54;0.98;;;0.80;;
76995;SDS011;65929;49.062;10.338;2023-12-20T03:10:55;0.88;;;0.77;;
76995;SDS011;65929;49.062;10.338;2023-12-20T03:11:56;1.17;;;0.73;;
76995;SDS011;65929;49.062;10.338;2023-12-20T03:12:57;2.20;;;1.40;;
76995;SDS011;65929;49.062;10.338;2023-12-20T03:13:58;1.40;;;0.80;;
76995;SDS011;65929;49.062;10.338;2023-12-20T03:14:59;1.25;;;0.60;;
76995;SDS011;65929;49.062;10.338;2023-12-20T03:15:59;1.67;;;0.90;;
76995;SDS011;65929;49.062;10.338;2023-12-20T03:17:00;1.33;;;0.85;;
76995;SDS011;65929;49.062;10.338;2023-12-20T03:18:01;1.33;;;0.95;;
76995;SDS011;65929;49.062;10.338;2023-12-20T03:19:02;1.92;;;1.10;;
76995;SDS011;65929;49.062;10.338;2023-12-20T03:20:04;2.35;;;0.95;;
76995;SDS011;65929;49.062;10.338;2023-12-20T03:21:06;1.10;;;0.63;;
76995;SDS011;65929;49.062;10.338;2023-12-20T03:22:07;1.75;;;0.93;;
76995;SDS011;65929;49.062;10.338;2023-12-20T03:23:09;1.65;;;0.90;;
76995;SDS011;65929;49.062;10.338;2023-12-20T03:24:10;0.77;;;0.75;;
76995;SDS011;65929;49.062;10.338;2023-12-20T03:25:11;1.00;;;0.77;;
76995;SDS011;65929;49.062;10.338;2023-12-20T03:26:12;1.27;;;0.73;;
76995;SDS011;65929;49.062;10.338;2023-12-20T03:27:13;1.02;;;0.80;;
76995;SDS011;65929;49.062;10.338;2023-12-20T03:28:14;1.08;;;0.82;;
76995;SDS011;65929;49.062;10.338;2023-12-20T03:29:16;0.70;;;0.57;;
76995;SDS011;65929;49.062;10.338;2023-12-20T03:30:17;0.77;;;0.40;;
76995;SDS011;65929;49.062;10.338;2023-12-20T03:31:17;0.60;;;0.32;;
76995;SDS011;65929;49.062;10.338;2023-12-20T03:32:19;1.23;;;0.50;;
76995;SDS011;65929;49.062;10.338;2023-12-20T03:33:20;1.17;;;0.40;;
76995;SDS011;65929;49.062;10.338;2023-12-20T03:34:21;0.50;;;0.50;;
76995;SDS011;65929;49.062;10.338;2023-12-20T03:35:22;0.50;;;0.50;;
76995;SDS011;65929;49.062;10.338;2023-12-20T03:36:23;0.70;;;0.30;;
76995;SDS011;65929;49.062;10.338;2023-12-20T03:37:24;2.58;;;0.45;;
76995;SDS011;65929;49.062;10.338;2023-12-20T03:38:26;0.93;;;0.60;;
76995;SDS011;65929;49.062;10.338;2023-12-20T03:39:27;0.80;;;0.50;;
76995;SDS011;65929;49.062;10.338;2023-12-20T03:40:28;1.77;;;0.50;;
76995;SDS011;65929;49.062;10.338;2023-12-20T03:41:29;0.30;;;0.30;;
76995;SDS011;65929;49.062;10.338;2023-12-20T03:42:30;1.02;;;0.93;;
76995;SDS011;65929;49.062;10.338;2023-12-20T03:43:31;0.30;;;0.30;;
76995;SDS011;65929;49.062;10.338;2023-12-20T03:44:32;0.45;;;0.30;;
76995;SDS011;65929;49.062;10.338;2023-12-20T03:45:33;0.35;;;0.22;;
76995;SDS011;65929;49.062;10.338;2023-12-20T03:46:34;0.60;;;0.30;;
76995;SDS011;65929;49.062;10.338;2023-12-20T03:47:35;0.40;;;0.28;;
76995;SDS011;65929;49.062;10.338;2023-12-20T03:48:36;0.77;;;0.40;;
76995;SDS011;65929;49.062;10.338;2023-12-20T03:49:36;0.73;;;0.30;;
76995;SDS011;65929;49.062;10.338;2023-12-20T03:50:39;0.50;;;0.40;;
76995;SDS011;65929;49.062;10.338;2023-12-20T03:51:40;0.40;;;0.40;;
76995;SDS011;65929;49.062;10.338;2023-12-20T03:52:42;0.35;;;0.35;;
76995;SDS011;65929;49.062;10.338;2023-12-20T03:53:44;0.30;;;0.30;;
76995;SDS011;65929;49.062;10.338;2023-12-20T03:54:45;0.45;;;0.30;;
76995;SDS011;65929;49.062;10.338;2023-12-20T03:55:46;0.43;;;0.35;;
76995;SDS011;65929;49.062;10.338;2023-12-20T03:56:47;0.45;;;0.30;;
76995;SDS011;65929;49.062;10.338;2023-12-20T03:57:47;0.45;;;0.20;;
76995;SDS011;65929;49.062;10.338;2023-12-20T03:58:49;1.02;;;0.50;;
76995;SDS011;65929;49.062;10.338;2023-12-20T03:59:50;0.55;;;0.47;;
76995;SDS011;65929;49.062;10.338;2023-12-20T04:00:51;0.60;;;0.30;;
76995;SDS011;65929;49.062;10.338;2023-12-20T04:01:51;0.30;;;0.22;;
76995;SDS011;65929;49.062;10.338;2023-12-20T04:02:52;0.32;;;0.20;;
76995;SDS011;65929;49.062;10.338;2023-12-20T04:03:53;0.32;;;0.20;;
76995;SDS011;65929;49.062;10.338;2023-12-20T04:04:54;0.77;;;0.30;;
76995;SDS011;65929;49.062;10.338;2023-12-20T04:05:55;1.95;;;0.50;;
76995;SDS011;65929;49.062;10.338;2023-12-20T04:06:56;1.10;;;0.38;;
76995;SDS011;65929;49.062;10.338;2023-12-20T04:07:57;0.30;;;0.30;;
76995;SDS011;65929;49.062;10.338;2023-12-20T04:09:01;0.40;;;0.30;;
76995;SDS011;65929;49.062;10.338;2023-12-20T04:10:02;0.10;;;0.10;;
76995;SDS011;65929;49.062;10.338;2023-12-20T04:11:04;0.35;;;0.30;;
76995;SDS011;65929;49.062;10.338;2023-12-20T04:12:05;0.30;;;0.20;;
76995;SDS011;65929;49.062;10.338;2023-12-20T04:13:06;0.17;;;0.17;;
76995;SDS011;65929;49.062;10.338;2023-12-20T04:14:07;0.15;;;0.10;;
76995;SDS011;65929;49.062;10.338;2023-12-20T04:15:08;0.28;;;0.28;;
76995;SDS011;65929;49.062;10.338;2023-12-20T04:16:10;0.30;;;0.30;;
76995;SDS011;65929;49.062;10.338;2023-12-20T04:17:11;0.47;;;0.32;;
76995;SDS011;65929;49.062;10.338;2023-12-20T04:18:12;0.30;;;0.30;;
76995;SDS011;65929;49.062;10.338;2023-12-20T04:19:13;0.30;;;0.20;;
76995;SDS011;65929;49.062;10.338;2023-12-20T04:20:14;0.32;;;0.30;;
76995;SDS011;65929;49.062;10.338;2023-12-20T04:21:15;0.82;;;0.40;;
76995;SDS011;65929;49.062;10.338;2023-12-20T04:22:16;0.32;;;0.30;;
76995;SDS011;65929;49.062;10.338;2023-12-20T04:23:17;0.30;;;0.20;;
76995;SDS011;65929;49.062;10.338;2023-12-20T04:24:20;0.55;;;0.30;;
76995;SDS011;65929;49.062;10.338;2023-12-20T04:25:22;0.47;;;0.30;;
76995;SDS011;65929;49.062;10.338;2023-12-20T04:26:23;0.28;;;0.28;;
76995;SDS011;65929;49.062;10.338;2023-12-20T04:27:24;0.20;;;0.20;;
76995;SDS011;65929;49.062;10.338;2023-12-20T04:28:25;0.30;;;0.30;;
76995;SDS011;65929;49.062;10.338;2023-12-20T04:29:26;0.30;;;0.30;;
76995;SDS011;65929;49.062;10.338;2023-12-20T04:30:27;0.30;;;0.20;;
76995;SDS011;65929;49.062;10.338;2023-12-20T04:31:28;1.20;;;0.30;;
76995;SDS011;65929;49.062;10.338;2023-12-20T04:32:29;0.60;;;0.30;;
76995;SDS011;65929;49.062;10.338;2023-12-20T04:33:29;0.20;;;0.20;;
76995;SDS011;65929;49.062;10.338;2023-12-20T04:34:30;3.35;;;0.40;;
76995;SDS011;65929;49.062;10.338;2023-12-20T04:35:31;0.45;;;0.20;;
76995;SDS011;65929;49.062;10.338;2023-12-20T04:36:32;0.60;;;0.30;;
76995;SDS011;65929;49.062;10.338;2023-12-20T04:37:34;0.28;;;0.20;;
76995;SDS011;65929;49.062;10.338;2023-12-20T04:38:35;0.40;;;0.32;;
76995;SDS011;65929;49.062;10.338;2023-12-20T04:39:37;0.40;;;0.15;;
76995;SDS011;65929;49.062;10.338;2023-12-20T04:40:38;0.77;;;0.22;;
76995;SDS011;65929;49.062;10.338;2023-12-20T04:41:41;0.30;;;0.22;;
76995;SDS011;65929;49.062;10.338;2023-12-20T04:42:41;0.32;;;0.17;;
76995;SDS011;65929;49.062;10.338;2023-12-20T04:43:42;0.32;;;0.28;;
76995;SDS011;65929;49.062;10.338;2023-12-20T04:44:43;0.60;;;0.30;;
76995;SDS011;65929;49.062;10.338;2023-12-20T04:45:44;0.10;;;0.10;;
76995;SDS011;65929;49.062;10.338;2023-12-20T04:46:45;0.47;;;0.22;;
76995;SDS011;65929;49.062;10.338;2023-12-20T04:47:46;0.35;;;0.25;;
76995;SDS011;65929;49.062;10.338;2023-12-20T04:48:47;0.08;;;0.03;;
76995;SDS011;65929;49.062;10.338;2023-12-20T04:49:48;0.20;;;0.20;;
76995;SDS011;65929;49.062;10.338;2023-12-20T04:50:48;0.25;;;0.20;;
76995;SDS011;65929;49.062;10.338;2023-12-20T04:51:49;0.38;;;0.38;;
76995;SDS011;65929;49.062;10.338;2023-12-20T04:52:50;0.32;;;0.25;;
76995;SDS011;65929;49.062;10.338;2023-12-20T04:53:51;0.47;;;0.20;;
76995;SDS011;65929;49.062;10.338;2023-12-20T04:54:53;0.20;;;0.20;;
76995;SDS011;65929;49.062;10.338;2023-12-20T04:55:54;0.65;;;0.20;;
76995;SDS011;65929;49.062;10.338;2023-12-20T04:56:55;1.25;;;0.47;;
76995;SDS011;65929;49.062;10.338;2023-12-20T04:57:56;0.30;;;0.20;;
76995;SDS011;65929;49.062;10.338;2023-12-20T04:58:57;0.80;;;0.40;;
76995;SDS011;65929;49.062;10.338;2023-12-20T04:59:58;0.28;;;0.20;;
76995;SDS011;65929;49.062;10.338;2023-12-20T05:00:59;0.45;;;0.20;;
76995;SDS011;65929;49.062;10.338;2023-12-20T05:02:00;0.45;;;0.20;;
76995;SDS011;65929;49.062;10.338;2023-12-20T05:03:02;0.55;;;0.22;;
76995;SDS011;65929;49.062;10.338;2023-12-20T05:04:03;0.32;;;0.30;;
76995;SDS011;65929;49.062;10.338;2023-12-20T05:05:04;0.20;;;0.10;;
76995;SDS011;65929;49.062;10.338;2023-12-20T05:06:05;0.10;;;0.10;;
76995;SDS011;65929;49.062;10.338;2023-12-20T05:07:06;0.17;;;0.13;;
76995;SDS011;65929;49.062;10.338;2023-12-20T05:08:07;1.10;;;0.30;;
76995;SDS011;65929;49.062;10.338;2023-12-20T05:09:08;0.30;;;0.30;;
76995;SDS011;65929;49.062;10.338;2023-12-20T05:10:10;0.70;;;0.50;;
76995;SDS011;65929;49.062;10.338;2023-12-20T05:11:12;0.20;;;0.20;;
76995;SDS011;65929;49.062;10.338;2023-12-20T05:12:15;0.20;;;0.20;;
76995;SDS011;65929;49.062;10.338;2023-12-20T05:13:16;0.68;;;0.50;;
76995;SDS011;65929;49.062;10.338;2023-12-20T05:14:17;0.50;;;0.30;;
76995;SDS011;65929;49.062;10.338;2023-12-20T05:15:17;0.20;;;0.20;;
76995;SDS011;65929;49.062;10.338;2023-12-20T05:16:18;0.40;;;0.40;;
76995;SDS011;65929;49.062;10.338;2023-12-20T05:17:19;0.43;;;0.30;;
76995;SDS011;65929;49.062;10.338;2023-12-20T05:18:20;0.30;;;0.30;;
76995;SDS011;65929;49.062;10.338;2023-12-20T05:19:21;0.20;;;0.20;;
76995;SDS011;65929;49.062;10.338;2023-12-20T05:20:23;0.60;;;0.40;;
76995;SDS011;65929;49.062;10.338;2023-12-20T05:21:24;0.63;;;0.20;;
76995;SDS011;65929;49.062;10.338;2023-12-20T05:22:24;0.70;;;0.20;;
76995;SDS011;65929;49.062;10.338;2023-12-20T05:23:26;0.60;;;0.40;;
76995;SDS011;65929;49.062;10.338;2023-12-20T05:24:26;0.45;;;0.32;;
76995;SDS011;65929;49.062;10.338;2023-12-20T05:25:29;0.20;;;0.20;;
76995;SDS011;65929;49.062;10.338;2023-12-20T05:26:30;0.15;;;0.15;;
76995;SDS011;65929;49.062;10.338;2023-12-20T05:27:31;0.35;;;0.28;;
76995;SDS011;65929;49.062;10.338;2023-12-20T05:28:31;0.68;;;0.20;;
76995;SDS011;65929;49.062;10.338;2023-12-20T05:29:32;0.82;;;0.20;;
76995;SDS011;65929;49.062;10.338;2023-12-20T05:30:33;0.30;;;0.30;;
76995;SDS011;65929;49.062;10.338;2023-12-20T05:31:34;0.22;;;0.10;;
76995;SDS011;65929;49.062;10.338;2023-12-20T05:32:35;0.20;;;0.20;;
76995;SDS011;65929;49.062;10.338;2023-12-20T05:33:36;0.35;;;0.10;;
76995;SDS011;65929;49.062;10.338;2023-12-20T05:34:37;0.63;;;0.20;;
76995;SDS011;65929;49.062;10.338;2023-12-20T05:35:38;0.30;;;0.20;;
76995;SDS011;65929;49.062;10.338;2023-12-20T05:36:39;0.22;;;0.20;;
76995;SDS011;65929;49.062;10.338;2023-12-20T05:37:39;0.82;;;0.30;;
76995;SDS011;65929;49.062;10.338;2023-12-20T05:38:40;0.68;;;0.30;;
76995;SDS011;65929;49.062;10.338;2023-12-20T05:39:41;0.30;;;0.30;;
76995;SDS011;65929;49.062;10.338;2023-12-20T05:40:44;0.30;;;0.30;;
76995;SDS011;65929;49.062;10.338;2023-12-20T05:41:45;0.35;;;0.20;;
76995;SDS011;65929;49.062;10.338;2023-12-20T05:42:46;0.57;;;0.30;;
76995;SDS011;65929;49.062;10.338;2023-12-20T05:43:48;0.17;;;0.17;;
76995;SDS011;65929;49.062;10.338;2023-12-20T05:44:49;0.30;;;0.30;;
76995;SDS011;65929;49.062;10.338;2023-12-20T05:45:50;0.50;;;0.43;;
76995;SDS011;65929;49.062;10.338;2023-12-20T05:46:51;0.70;;;0.52;;
76995;SDS011;65929;49.062;10.338;2023-12-20T05:47:51;0.38;;;0.38;;
76995;SDS011;65929;49.062;10.338;2023-12-20T05:48:52;0.50;;;0.40;;
76995;SDS011;65929;49.062;10.338;2023-12-20T05:49:53;0.20;;;0.20;;
76995;SDS011;65929;49.062;10.338;2023-12-20T05:50:54;0.65;;;0.52;;
76995;SDS011;65929;49.062;10.338;2023-12-20T05:51:55;0.20;;;0.20;;
76995;SDS011;65929;49.062;10.338;2023-12-20T05:52:56;0.55;;;0.45;;
76995;SDS011;65929;49.062;10.338;2023-12-20T05:53:57;1.70;;;0.40;;
76995;SDS011;65929;49.062;10.338;2023-12-20T05:54:59;0.30;;;0.30;;
76995;SDS011;65929;49.062;10.338;2023-12-20T05:56:02;0.30;;;0.22;;
76995;SDS011;65929;49.062;10.338;2023-12-20T05:57:04;0.40;;;0.35;;
76995;SDS011;65929;49.062;10.338;2023-12-20T05:58:05;0.80;;;0.40;;
76995;SDS011;65929;49.062;10.338;2023-12-20T05:59:06;0.88;;;0.40;;
76995;SDS011;65929;49.062;10.338;2023-12-20T06:00:07;0.68;;;0.22;;
76995;SDS011;65929;49.062;10.338;2023-12-20T06:01:09;0.22;;;0.22;;
76995;SDS011;65929;49.062;10.338;2023-12-20T06:02:10;0.52;;;0.43;;
76995;SDS011;65929;49.062;10.338;2023-12-20T06:03:11;0.38;;;0.32;;